createdAt,value
2022-08-17T01:01:26.998Z,5.55
2022-08-17T01:04:50.957Z,11.53
2022-08-17T01:08:00.030Z,17.10
2022-08-17T01:11:24.032Z,17.27
2022-08-17T01:14:36.031Z,14.13
2022-08-17T01:18:01.996Z,12.47
2022-08-17T01:21:14.103Z,21.70
2022-08-17T01:24:39.004Z,22.17
2022-08-17T01:27:51.043Z,18.17
2022-08-17T01:31:16.208Z,17.37
2022-08-17T01:34:36.865Z,13.90
2022-08-17T01:37:53.059Z,20.83
2022-08-17T01:41:07.178Z,22.53
2022-08-17T01:44:31.114Z,14.27
2022-08-17T01:47:32.091Z,15.60
2022-08-17T01:50:56.123Z,20.37
2022-08-17T01:54:08.113Z,18.60
2022-08-17T01:57:35.125Z,18.03
2022-08-17T02:00:59.735Z,17.90
2022-08-17T02:04:01.141Z,14.93
2022-08-17T02:07:01.140Z,15.93
2022-08-17T02:10:20.371Z,14.57
2022-08-17T02:13:28.186Z,19.33
2022-08-17T02:16:52.203Z,15.20
2022-08-17T02:20:04.234Z,18.90
2022-08-17T02:23:28.210Z,17.10
2022-08-17T02:26:40.231Z,14.07
2022-08-17T02:31:01.562Z,20.50
2022-08-17T02:33:19.275Z,13.05
2022-08-17T02:36:32.273Z,21.27
2022-08-17T02:39:34.288Z,18.80
2022-08-17T02:42:58.282Z,18.47
2022-08-17T02:46:12.264Z,18.73
2022-08-17T02:49:25.278Z,14.50
2022-08-17T02:52:42.361Z,13.87
2022-08-17T02:55:50.353Z,14.50
2022-08-17T02:59:02.324Z,14.47
2022-08-17T03:02:29.345Z,12.33
2022-08-17T03:05:41.330Z,13.23
2022-08-17T03:08:54.375Z,15.73
2022-08-17T03:12:07.335Z,18.93
2022-08-17T03:15:32.360Z,18.47
2022-08-17T03:18:46.408Z,20.77
2022-08-17T03:22:00.377Z,16.30
2022-08-17T03:25:00.388Z,22.17
2022-08-17T03:28:25.431Z,20.30
2022-08-17T03:31:34.441Z,21.50
2022-08-17T03:35:01.408Z,17.87
2022-08-17T03:38:02.493Z,21.27
2022-08-17T03:41:15.429Z,16.50
2022-08-17T03:44:27.477Z,20.73
2022-08-17T03:47:57.254Z,19.73
2022-08-17T03:51:15.919Z,17.20
2022-08-17T03:54:46.163Z,13.00
2022-08-17T03:57:47.540Z,14.00
2022-08-17T04:01:11.550Z,14.47
2022-08-17T04:04:35.503Z,18.60
2022-08-17T04:07:49.501Z,16.77
2022-08-17T04:11:02.564Z,19.90
2022-08-17T04:14:03.565Z,22.07
2022-08-17T04:17:28.537Z,12.27
2022-08-17T04:20:40.570Z,12.60
2022-08-17T04:24:07.586Z,14.17
2022-08-17T04:27:08.557Z,11.90
2022-08-17T04:30:34.583Z,22.70
2022-08-17T04:33:46.606Z,19.80
2022-08-17T04:37:10.615Z,19.70
2022-08-17T04:40:29.084Z,22.60
2022-08-17T04:43:53.607Z,15.97
2022-08-17T04:46:54.781Z,13.03
2022-08-17T04:50:07.695Z,12.20
2022-08-17T04:53:08.659Z,12.10
2022-08-17T04:56:35.681Z,11.23
2022-08-17T04:59:36.688Z,11.27
2022-08-17T05:03:08.717Z,11.37
2022-08-17T05:06:09.719Z,12.10
2022-08-17T05:09:33.730Z,19.37
2022-08-17T05:12:47.734Z,17.43
2022-08-17T05:16:11.760Z,18.90
2022-08-17T05:19:12.742Z,23.63
2022-08-17T05:22:36.789Z,21.80
2022-08-17T05:25:48.748Z,25.10
2022-08-17T05:29:14.769Z,21.80
2022-08-17T05:32:39.006Z,20.27
2022-08-17T05:35:56.827Z,21.00
2022-08-17T05:38:58.841Z,18.10
2022-08-17T05:42:22.870Z,19.37
2022-08-17T05:45:39.971Z,26.67
2022-08-17T05:49:00.891Z,28.27
2022-08-17T05:52:20.117Z,21.40
2022-08-17T05:55:42.865Z,21.00
2022-08-17T05:59:03.886Z,19.93
2022-08-17T06:02:31.889Z,23.23
2022-08-17T06:06:01.910Z,23.13
2022-08-17T06:09:14.938Z,17.27
2022-08-17T06:12:42.953Z,18.07
2022-08-17T06:15:52.922Z,24.20
2022-08-17T06:19:18.908Z,24.07
2022-08-17T06:22:30.920Z,23.87
2022-08-17T06:25:54.938Z,19.70
2022-08-17T06:29:08.224Z,21.00
2022-08-17T06:32:31.989Z,18.13
2022-08-17T06:35:46.043Z,20.10
2022-08-17T06:39:11.981Z,23.37
2022-08-17T06:42:54.813Z,20.30
2022-08-17T06:45:50.025Z,21.20
2022-08-17T06:49:03.077Z,21.23
2022-08-17T06:52:45.430Z,16.83
2022-08-17T06:55:41.049Z,22.33
2022-08-17T06:59:05.055Z,21.43
2022-08-17T07:02:04.037Z,21.57
2022-08-17T07:05:30.075Z,19.20
2022-08-17T07:08:44.071Z,21.30
2022-08-17T07:12:08.124Z,19.93
2022-08-17T07:15:21.136Z,19.75
2022-08-17T07:18:46.141Z,20.47
2022-08-17T07:22:02.062Z,20.53
2022-08-17T07:25:28.156Z,20.87
2022-08-17T07:28:40.134Z,22.07
2022-08-17T07:32:04.173Z,22.40
2022-08-17T07:35:24.149Z,20.90
2022-08-17T07:38:48.210Z,20.37
2022-08-17T07:42:02.166Z,17.30
2022-08-17T07:45:28.262Z,18.33
2022-08-17T07:48:40.220Z,21.20
2022-08-17T07:52:48.549Z,18.37
2022-08-17T07:55:06.285Z,18.90
2022-08-17T07:58:33.279Z,16.77
2022-08-17T08:01:41.797Z,14.57
2022-08-17T08:05:00.916Z,17.93
2022-08-17T08:08:14.281Z,16.07
2022-08-17T08:11:44.098Z,15.73
2022-08-17T08:14:54.298Z,15.30
2022-08-17T08:18:19.296Z,16.90
2022-08-17T08:21:31.297Z,15.10
2022-08-17T08:25:04.305Z,12.97
2022-08-17T08:28:18.298Z,13.80
2022-08-17T08:31:45.345Z,12.13
2022-08-17T08:38:23.382Z,13.93
2022-08-17T08:41:38.369Z,14.33
2022-08-17T08:45:04.628Z,17.63
2022-08-17T08:48:53.407Z,15.10
2022-08-17T08:51:53.420Z,12.13
2022-08-17T08:55:05.404Z,10.20
2022-08-17T08:58:31.510Z,14.83
2022-08-17T09:01:40.447Z,10.53
2022-08-17T09:05:14.478Z,12.10
2022-08-17T09:08:22.453Z,13.53
2022-08-17T09:12:01.766Z,16.63
2022-08-17T09:15:00.520Z,14.00
2022-08-17T09:19:03.386Z,15.03
2022-08-17T09:21:38.491Z,13.50
2022-08-17T09:25:02.542Z,12.40
2022-08-17T09:28:15.501Z,12.73
2022-08-17T09:31:46.404Z,15.33
2022-08-17T09:34:52.561Z,9.60
2022-08-17T09:38:19.746Z,9.17
2022-08-17T09:41:32.586Z,15.30
2022-08-17T09:44:57.579Z,9.90
2022-08-17T09:48:07.603Z,9.17
2022-08-17T09:51:31.570Z,10.47
2022-08-17T09:54:45.613Z,12.73
2022-08-17T09:58:12.623Z,7.20
2022-08-17T10:01:24.646Z,11.53
2022-08-17T10:04:50.610Z,9.47
2022-08-17T10:08:03.645Z,11.80
2022-08-17T10:11:33.856Z,9.73
2022-08-17T10:14:55.669Z,12.07
2022-08-17T10:18:33.104Z,9.53
2022-08-17T10:21:44.168Z,11.30
2022-08-17T10:25:23.894Z,7.90
2022-08-17T10:28:30.011Z,6.53
2022-08-17T10:31:52.747Z,12.17
2022-08-17T10:35:13.695Z,8.80
2022-08-17T10:38:53.692Z,9.63
2022-08-17T10:42:05.722Z,9.73
2022-08-17T10:45:31.731Z,9.07
2022-08-17T10:48:50.762Z,12.53
2022-08-17T10:52:14.859Z,6.87
2022-08-17T10:55:33.832Z,8.40
2022-08-17T10:58:59.761Z,10.60
2022-08-17T11:02:24.790Z,7.03
2022-08-17T11:05:59.832Z,8.53
2022-08-17T11:09:49.790Z,9.43
2022-08-17T11:13:14.857Z,12.97
2022-08-17T11:16:45.817Z,11.53
2022-08-17T11:20:49.858Z,18.53
2022-08-17T11:24:38.975Z,9.57
2022-08-17T11:28:04.827Z,12.57
2022-08-17T11:31:16.877Z,14.83
2022-08-17T11:34:41.870Z,8.07
2022-08-17T11:38:07.761Z,12.30
2022-08-17T11:41:38.926Z,19.40
2022-08-17T11:44:55.907Z,17.05
2022-08-17T11:48:28.185Z,18.90
2022-08-17T11:51:46.062Z,19.40
2022-08-17T11:55:34.035Z,14.10
2022-08-17T11:58:25.055Z,17.93
2022-08-17T12:02:15.954Z,10.00
2022-08-17T12:05:49.997Z,16.60
2022-08-17T12:09:02.980Z,9.30
2022-08-17T12:12:28.007Z,14.57
2022-08-17T12:15:41.985Z,10.17
2022-08-17T12:19:19.025Z,13.27
2022-08-17T12:22:32.019Z,23.30
2022-08-17T12:25:57.072Z,18.07
2022-08-17T12:29:09.352Z,20.67
2022-08-17T12:32:35.029Z,20.60
2022-08-17T12:35:47.089Z,18.57
2022-08-17T12:39:21.288Z,17.33
2022-08-17T12:42:27.068Z,17.03
2022-08-17T12:45:51.070Z,24.43
2022-08-17T12:49:05.065Z,21.35
2022-08-17T12:52:30.150Z,11.90
2022-08-17T12:55:42.180Z,23.73
2022-08-17T12:59:08.128Z,23.00
2022-08-17T13:02:20.117Z,25.23
2022-08-17T13:05:49.170Z,11.25
2022-08-17T13:09:01.174Z,16.25
2022-08-17T13:12:15.217Z,17.50
2022-08-17T13:15:27.140Z,13.77
2022-08-17T13:19:12.205Z,28.15
2022-08-17T13:22:26.182Z,21.23
2022-08-17T13:25:50.224Z,13.95
2022-08-17T14:18:54.288Z,13.40
2022-08-17T14:21:40.196Z,16.15
2022-08-17T14:24:53.124Z,11.33
2022-08-17T14:28:17.095Z,10.37
2022-08-17T14:31:31.872Z,11.67
2022-08-17T14:34:54.177Z,9.85
2022-08-17T14:38:06.153Z,11.20
2022-08-17T14:41:22.198Z,10.30
2022-08-17T14:44:31.265Z,9.83
2022-08-17T14:47:56.199Z,13.13
2022-08-17T14:51:22.186Z,14.90
2022-08-17T14:54:36.197Z,18.10
2022-08-17T14:57:48.258Z,9.30
2022-08-17T15:01:12.321Z,8.30
2022-08-17T15:04:13.276Z,6.63
2022-08-17T15:07:39.240Z,6.37
2022-08-17T15:10:54.385Z,4.27
2022-08-17T15:14:05.314Z,4.93
2022-08-17T15:17:06.286Z,4.80
2022-08-17T15:20:31.298Z,4.27
2022-08-17T15:23:45.288Z,4.50
2022-08-17T15:27:09.298Z,4.00
2022-08-17T15:30:10.348Z,4.30
2022-08-17T15:33:37.287Z,3.37
2022-08-17T15:36:49.764Z,4.43
2022-08-17T15:40:15.424Z,4.10
2022-08-17T15:43:29.427Z,3.93
2022-08-17T15:46:54.368Z,3.43
2022-08-17T15:50:06.369Z,3.23
2022-08-17T15:53:31.377Z,3.40
2022-08-17T15:56:45.383Z,3.40
2022-08-17T16:00:10.476Z,3.60
2022-08-17T16:03:56.058Z,3.00
2022-08-17T16:06:35.394Z,3.40
2022-08-17T16:09:48.436Z,2.63
2022-08-17T16:13:01.439Z,2.70
2022-08-17T16:16:14.447Z,2.50
2022-08-17T16:19:14.467Z,2.50
2022-08-17T16:22:38.505Z,2.50
2022-08-17T16:25:53.518Z,2.67
2022-08-17T16:29:28.510Z,2.40
2022-08-17T16:32:40.493Z,2.27
2022-08-17T16:36:04.556Z,2.77
2022-08-17T16:39:05.519Z,2.30
2022-08-17T16:42:30.582Z,2.37
2022-08-17T16:45:47.533Z,2.03
2022-08-17T16:48:57.571Z,2.43
2022-08-17T16:51:58.558Z,2.73
2022-08-17T16:55:22.599Z,2.60
2022-08-17T16:58:34.558Z,2.70
2022-08-17T17:02:00.593Z,3.07
2022-08-17T17:05:14.638Z,3.30
2022-08-17T17:08:44.078Z,2.57
2022-08-17T17:11:50.622Z,2.90
2022-08-17T17:15:17.657Z,2.67
2022-08-17T17:18:28.610Z,2.43
2022-08-17T17:21:52.661Z,2.50
2022-08-17T17:25:05.665Z,2.37
2022-08-17T17:28:30.685Z,2.90
2022-08-17T17:31:42.725Z,2.60
2022-08-17T17:35:09.718Z,2.23
2022-08-17T17:38:21.750Z,2.80
2022-08-17T17:41:45.775Z,2.70
2022-08-17T17:44:57.747Z,2.17
2022-08-17T17:48:21.737Z,2.30
2022-08-17T17:52:09.146Z,2.43
2022-08-17T17:55:13.742Z,2.70
2022-08-17T17:58:27.783Z,2.33
2022-08-17T18:01:55.878Z,2.43
2022-08-17T18:05:20.802Z,2.17
2022-08-17T18:08:35.069Z,2.13
2022-08-17T18:12:32.813Z,2.73
2022-08-17T18:15:43.822Z,2.60
2022-08-17T18:19:07.832Z,2.83
2022-08-17T18:22:19.818Z,2.60
2022-08-17T18:26:06.857Z,2.53
2022-08-17T18:29:18.836Z,2.50
2022-08-17T18:32:52.898Z,2.50
2022-08-17T18:36:04.880Z,2.60
2022-08-17T18:39:38.925Z,2.17
2022-08-17T18:42:52.895Z,2.37
2022-08-17T18:46:16.903Z,2.37
2022-08-17T18:49:28.937Z,2.27
2022-08-17T18:52:52.951Z,2.20
2022-08-17T18:55:53.927Z,2.50
2022-08-17T18:59:26.972Z,2.93
2022-08-17T19:02:45.970Z,2.63
2022-08-17T19:06:06.972Z,2.43
2022-08-17T19:09:07.976Z,2.20
2022-08-17T19:12:32.058Z,2.40
2022-08-17T19:15:41.993Z,2.30
2022-08-17T19:19:06.011Z,2.80
2022-08-17T19:22:28.407Z,2.37
2022-08-17T19:25:43.065Z,2.23
2022-08-17T19:28:55.025Z,2.67
2022-08-17T19:32:20.108Z,3.00
2022-08-17T19:35:33.031Z,2.40
2022-08-17T19:39:04.068Z,3.13
2022-08-17T19:42:17.054Z,2.50
2022-08-17T19:45:42.121Z,2.80
2022-08-17T19:48:57.172Z,2.80
2022-08-17T19:52:21.245Z,2.50
2022-08-17T19:55:34.097Z,2.60
2022-08-17T19:59:00.777Z,2.80
2022-08-17T20:02:14.143Z,2.70
2022-08-17T20:06:01.329Z,3.20
2022-08-17T20:08:52.155Z,4.90
2022-08-17T20:12:16.293Z,3.40
2022-08-17T20:15:29.189Z,3.23
2022-08-17T20:18:54.208Z,3.50
2022-08-17T20:22:08.243Z,3.10
2022-08-17T20:25:35.192Z,4.40
2022-08-17T20:28:47.271Z,3.70
2022-08-17T20:32:11.204Z,3.67
2022-08-17T20:35:26.260Z,4.50
2022-08-17T20:39:01.267Z,4.13
2022-08-17T20:42:26.252Z,4.03
2022-08-17T20:46:06.271Z,4.80
2022-08-17T20:49:18.314Z,4.33
2022-08-17T20:53:13.362Z,4.73
2022-08-17T20:56:27.307Z,4.97
2022-08-17T21:00:24.316Z,4.80
2022-08-17T21:04:08.371Z,5.00
2022-08-17T21:07:48.365Z,4.93
2022-08-17T21:11:01.359Z,4.67
2022-08-17T21:14:29.439Z,7.70
2022-08-17T21:18:01.353Z,4.93
2022-08-17T21:21:26.446Z,5.53
2022-08-17T21:24:41.415Z,5.50
2022-08-17T21:28:06.435Z,5.27
2022-08-17T21:31:21.438Z,5.60
2022-08-17T21:34:52.445Z,5.53
2022-08-17T21:38:04.437Z,5.57
2022-08-17T21:41:28.468Z,6.00
2022-08-17T21:44:43.447Z,9.60
2022-08-17T21:48:09.432Z,6.17
2022-08-17T21:51:23.476Z,6.13
2022-08-17T21:54:52.489Z,5.47
2022-08-17T21:58:14.178Z,4.97
2022-08-17T22:01:36.551Z,5.77
2022-08-17T22:05:03.517Z,5.50
2022-08-17T22:08:15.604Z,5.53
2022-08-17T22:11:28.530Z,5.37
2022-08-17T22:14:52.821Z,5.60
2022-08-17T22:18:05.538Z,5.53
2022-08-17T22:21:19.559Z,5.27
2022-08-17T22:24:43.551Z,5.40
2022-08-17T22:28:08.624Z,5.53
2022-08-17T22:31:30.592Z,5.93
2022-08-17T22:34:31.663Z,5.40
2022-08-17T22:37:56.628Z,5.27
2022-08-17T22:41:08.632Z,5.30
2022-08-17T22:44:39.686Z,5.50
2022-08-17T22:47:49.773Z,5.57
2022-08-17T22:51:14.059Z,6.07
2022-08-17T22:54:33.208Z,5.33
2022-08-17T22:58:03.463Z,4.60
2022-08-17T23:01:18.706Z,4.73
2022-08-17T23:04:54.722Z,5.00
2022-08-17T23:08:06.707Z,4.80
2022-08-17T23:11:36.629Z,5.47
2022-08-17T23:14:44.736Z,5.57
2022-08-17T23:18:08.734Z,5.27
2022-08-17T23:21:09.754Z,4.93
2022-08-17T23:24:34.026Z,5.43
2022-08-17T23:27:47.791Z,4.63
2022-08-17T23:31:11.791Z,4.80
2022-08-17T23:34:23.771Z,5.23
2022-08-17T23:37:37.840Z,5.10
2022-08-17T23:40:50.803Z,5.33
2022-08-17T23:44:16.826Z,5.70
2022-08-17T23:47:28.872Z,6.07
2022-08-17T23:50:41.876Z,4.80
2022-08-17T23:53:53.857Z,5.10
2022-08-17T23:57:17.929Z,4.77
